Time;durP1;ratioP1;P1;durP2;ratioP2;P2;SDS_P1;SDS_P2;PMS_P1;PMS_P2;Temp;Humidity;BMP_temperature;BMP_pressure;BME280_temperature;BME280_humidity;BME280_pressure;Samples;Min_cycle;Max_cycle;Signal;HPM_P1;HPM_P2
2021/03/02 00:01:40;;;;;;;8.00;4.47;;;;;;;2.94;73.05;100164.63;5002278;28;20520;-66
2021/03/02 00:04:06;;;;;;;8.43;4.15;;;;;;;3.03;72.70;100171.03;5009838;28;20113;-66
2021/03/02 00:06:31;;;;;;;10.48;4.10;;;;;;;2.99;72.87;100165.09;5006887;28;20030;-66
2021/03/02 00:08:57;;;;;;;7.32;4.03;;;;;;;2.99;72.73;100165.09;4996376;28;20054;-66
2021/03/02 00:11:24;;;;;;;7.07;3.63;;;;;;;3.07;72.94;100169.84;5005593;28;20423;-66
2021/03/02 00:13:49;;;;;;;6.85;4.00;;;;;;;3.18;72.22;100164.47;5008996;28;20076;-66
2021/03/02 00:16:21;;;;;;;6.97;4.05;;;;;;;3.19;71.97;100168.00;4996289;28;20438;-66
2021/03/02 00:18:49;;;;;;;7.80;4.03;;;;;;;3.20;72.01;100153.69;5012589;28;20041;-66
2021/03/02 00:21:18;;;;;;;10.70;4.90;;;;;;;2.95;72.43;100152.09;5014487;28;20503;-66
2021/03/02 00:23:52;;;;;;;10.60;5.35;;;;;;;2.89;72.49;100172.13;5014230;28;20534;-66
2021/03/02 00:26:19;;;;;;;11.70;5.15;;;;;;;2.59;73.17;100145.97;5000106;28;20030;-66
2021/03/02 00:28:49;;;;;;;10.82;4.90;;;;;;;2.56;73.75;100171.09;5000142;28;20030;-66
2021/03/02 00:31:14;;;;;;;11.57;5.55;;;;;;;2.57;73.74;100162.16;5000418;28;20380;-66
2021/03/02 00:33:41;;;;;;;11.25;5.78;;;;;;;2.26;74.01;100174.31;5014330;28;20060;-66
2021/03/02 00:36:07;;;;;;;10.70;4.88;;;;;;;2.29;75.37;100170.56;5005726;28;20036;-66
2021/03/02 00:38:32;;;;;;;10.02;5.75;;;;;;;2.36;74.71;100171.81;5014923;28;20049;-66
2021/03/02 00:40:57;;;;;;;9.65;5.22;;;;;;;2.47;73.93;100179.00;5009743;28;20026;-66
2021/03/02 00:43:23;;;;;;;11.70;6.22;;;;;;;2.61;73.96;100173.44;5007799;28;20033;-66
2021/03/02 00:45:48;;;;;;;9.25;5.35;;;;;;;2.61;73.76;100182.28;4999325;28;20549;-66
2021/03/02 00:48:15;;;;;;;10.55;5.03;;;;;;;2.36;74.05;100159.31;4995735;28;20045;-66
2021/03/02 00:50:40;;;;;;;11.70;5.70;;;;;;;2.57;74.57;100177.34;4999719;28;20124;-66
2021/03/02 00:53:05;;;;;;;13.63;6.47;;;;;;;2.44;75.08;100176.53;5014563;28;20053;-66
2021/03/02 00:55:31;;;;;;;12.23;6.00;;;;;;;2.34;74.77;100174.59;5009866;28;20426;-66
2021/03/02 00:57:56;;;;;;;11.23;5.80;;;;;;;2.25;75.59;100188.63;5006317;28;20034;-67
2021/03/02 01:00:22;;;;;;;10.27;6.03;;;;;;;2.31;75.54;100169.50;4996551;28;20100;-66
2021/03/02 01:02:47;;;;;;;11.10;6.25;;;;;;;2.41;75.59;100174.97;5001185;28;20022;-66
2021/03/02 01:05:13;;;;;;;9.18;5.85;;;;;;;2.26;75.69;100182.34;5009259;28;20034;-67
2021/03/02 01:07:38;;;;;;;11.18;6.00;;;;;;;2.33;75.83;100182.72;5014114;28;20039;-67
2021/03/02 01:10:06;;;;;;;10.18;5.07;;;;;;;2.32;76.02;100178.34;5011971;28;20410;-66
2021/03/02 01:12:31;;;;;;;8.57;5.13;;;;;;;2.36;75.53;100172.66;4996117;28;20038;-66
2021/03/02 01:14:57;;;;;;;11.55;4.68;;;;;;;2.23;76.23;100161.22;4998385;28;20092;-66
2021/03/02 01:17:23;;;;;;;7.70;4.05;;;;;;;2.37;76.20;100166.34;5011470;28;20026;-66
2021/03/02 01:19:49;;;;;;;8.88;4.15;;;;;;;2.35;76.20;100168.28;5006751;28;20549;-67
2021/03/02 01:22:14;;;;;;;7.63;4.13;;;;;;;2.23;76.54;100173.69;5005951;28;20026;-67
2021/03/02 01:24:39;;;;;;;9.70;4.80;;;;;;;2.12;77.23;100177.16;5000039;28;20031;-67
2021/03/02 01:27:05;;;;;;;7.72;4.13;;;;;;;2.00;77.16;100172.78;4997256;28;20050;-68
2021/03/02 01:29:31;;;;;;;10.30;4.22;;;;;;;1.85;77.04;100172.09;5012666;28;20021;-67
2021/03/02 01:31:56;;;;;;;9.68;3.95;;;;;;;1.83;77.40;100174.84;5010477;28;20537;-67
2021/03/02 01:34:21;;;;;;;8.57;3.92;;;;;;;1.82;77.54;100173.16;5012506;28;20108;-67
2021/03/02 01:36:47;;;;;;;8.75;4.03;;;;;;;1.78;78.14;100153.00;4994017;28;20034;-67
2021/03/02 01:39:12;;;;;;;10.57;4.45;;;;;;;2.00;77.92;100162.94;5001558;28;20105;-67
2021/03/02 01:41:39;;;;;;;8.52;3.92;;;;;;;2.08;77.92;100173.03;5000285;28;20471;-67
2021/03/02 01:44:04;;;;;;;7.65;4.05;;;;;;;2.10;77.90;100171.13;5003756;28;20030;-67
2021/03/02 01:46:29;;;;;;;10.13;4.57;;;;;;;2.09;78.12;100164.06;5012846;28;20034;-67
2021/03/02 01:48:56;;;;;;;9.48;4.93;;;;;;;1.96;77.73;100175.69;5013174;28;20022;-67
2021/03/02 01:51:21;;;;;;;8.77;4.82;;;;;;;1.93;77.42;100170.53;5003968;28;20024;-67
2021/03/02 01:53:47;;;;;;;12.82;4.80;;;;;;;1.74;77.91;100170.22;5004003;28;20022;-67
2021/03/02 01:56:12;;;;;;;7.60;4.30;;;;;;;1.61;78.55;100158.75;5008332;28;20459;-67
2021/03/02 01:58:38;;;;;;;7.25;4.05;;;;;;;1.68;78.84;100173.34;4998315;28;20026;-67
2021/03/02 02:01:08;;;;;;;10.43;4.60;;;;;;;1.89;78.79;100173.59;4997045;28;20057;-67
2021/03/02 02:03:51;;;;;;;8.77;5.30;;;;;;;1.83;78.15;100163.34;4997039;28;20018;-67
2021/03/02 02:06:26;;;;;;;7.22;4.25;;;;;;;1.65;78.46;100162.88;5012557;28;20376;-67
2021/03/02 02:08:57;;;;;;;10.75;5.57;;;;;;;1.46;78.23;100166.91;5011591;28;20030;-67
2021/03/02 02:11:35;;;;;;;9.75;5.05;;;;;;;1.27;78.67;100161.19;4998982;28;20393;-67
2021/03/02 02:14:14;;;;;;;9.93;5.20;;;;;;;1.28;80.10;100161.09;4995266;28;20037;-67
2021/03/02 02:16:44;;;;;;;9.02;5.03;;;;;;;1.41;79.35;100152.19;5004482;28;20057;-67
2021/03/02 02:19:31;;;;;;;12.07;5.45;;;;;;;1.48;79.58;100167.66;5011598;28;20083;-67
2021/03/02 02:22:17;;;;;;;9.88;5.50;;;;;;;1.41;77.86;100155.72;5008348;28;20546;-67
2021/03/02 02:25:32;;;;;;;11.45;6.22;;;;;;;1.16;78.18;100161.97;4994490;28;20157;-67
2021/03/02 02:28:00;;;;;;;11.27;5.50;;;;;;;0.90;78.37;100157.66;4954885;28;20047;-67
2021/03/02 02:30:26;;;;;;;12.83;5.13;;;;;;;0.72;79.04;100154.47;4998113;28;20484;-68
2021/03/02 02:32:53;;;;;;;10.18;4.70;;;;;;;0.68;80.05;100139.66;4995912;28;20356;-68
2021/03/02 02:35:21;;;;;;;12.27;4.88;;;;;;;0.89;80.33;100164.78;5011422;28;20025;-67
2021/03/02 02:37:51;;;;;;;7.20;4.22;;;;;;;0.92;80.55;100169.91;5010594;28;20018;-67
2021/03/02 02:40:19;;;;;;;6.80;3.85;;;;;;;0.93;80.63;100171.59;5012698;28;20018;-67
2021/03/02 02:42:48;;;;;;;8.13;4.40;;;;;;;0.88;80.36;100158.59;5012088;28;20057;-67
2021/03/02 02:45:15;;;;;;;8.30;4.00;;;;;;;0.92;80.93;100159.25;5005353;28;20034;-67
2021/03/02 02:47:41;;;;;;;9.65;4.38;;;;;;;1.09;81.82;100166.03;4993930;28;20053;-67
2021/03/02 02:50:07;;;;;;;9.32;4.50;;;;;;;1.16;81.20;100161.13;4993177;28;20030;-67
2021/03/02 02:52:33;;;;;;;8.30;4.43;;;;;;;1.26;80.49;100155.03;5002865;28;20498;-67
2021/03/02 02:54:59;;;;;;;10.20;4.80;;;;;;;1.21;80.98;100159.84;4995214;28;20034;-67
2021/03/02 02:57:27;;;;;;;7.18;4.20;;;;;;;1.26;80.43;100159.50;5005300;28;20034;-67
2021/03/02 02:59:54;;;;;;;10.68;4.60;;;;;;;1.29;80.75;100162.78;4994993;28;20030;-67
2021/03/02 03:02:22;;;;;;;7.30;4.15;;;;;;;1.36;81.03;100157.84;5001731;28;20022;-67
2021/03/02 03:04:55;;;;;;;9.68;4.60;;;;;;;1.42;80.43;100164.59;5008730;28;20033;-67
2021/03/02 03:07:29;;;;;;;7.30;4.00;;;;;;;1.33;79.62;100162.56;5006881;28;20029;-68
2021/03/02 03:09:56;;;;;;;9.80;4.40;;;;;;;1.07;78.91;100166.16;5004680;28;20041;-68
2021/03/02 03:12:24;;;;;;;8.40;4.70;;;;;;;0.65;79.54;100136.25;5002358;28;20027;-66
2021/03/02 03:14:56;;;;;;;10.23;5.00;;;;;;;0.53;80.29;100160.22;4999937;28;20022;-66
2021/03/02 03:17:22;;;;;;;10.50;5.03;;;;;;;0.43;81.13;100167.97;5009499;28;20109;-66
2021/03/02 03:19:49;;;;;;;10.52;5.57;;;;;;;0.38;81.42;100164.78;4999818;28;20019;-66
2021/03/02 03:22:16;;;;;;;11.65;5.75;;;;;;;0.32;81.74;100170.53;5012994;28;20053;-66
2021/03/02 03:24:42;;;;;;;11.57;5.47;;;;;;;0.27;82.91;100168.19;5012330;28;20030;-66
2021/03/02 03:27:09;;;;;;;10.00;5.38;;;;;;;0.20;82.60;100165.06;5010759;28;20439;-66
2021/03/02 03:29:36;;;;;;;11.75;5.90;;;;;;;0.18;82.93;100169.66;4999588;28;20407;-66
2021/03/02 03:32:04;;;;;;;12.35;5.85;;;;;;;0.21;82.84;100168.59;5010076;28;20487;-66
2021/03/02 03:34:31;;;;;;;14.10;6.00;;;;;;;0.19;82.39;100163.38;5011898;28;20108;-66
2021/03/02 03:36:57;;;;;;;14.98;6.30;;;;;;;0.31;82.63;100163.50;5012257;28;20105;-66
2021/03/02 03:39:22;;;;;;;12.95;5.88;;;;;;;0.36;82.40;100172.84;5010849;28;20108;-66
2021/03/02 03:41:49;;;;;;;13.65;6.32;;;;;;;0.29;82.29;100171.59;5013982;28;20029;-66
2021/03/02 03:44:14;;;;;;;9.93;5.45;;;;;;;0.27;82.30;100172.66;5015742;28;20037;-66
2021/03/02 03:46:39;;;;;;;10.07;5.53;;;;;;;0.20;82.85;100177.53;5012550;28;20030;-66
2021/03/02 03:49:05;;;;;;;20.30;6.60;;;;;;;0.10;82.77;100182.59;5002483;28;20045;-65
2021/03/02 03:51:31;;;;;;;14.02;5.78;;;;;;;0.02;82.63;100178.75;5004246;28;20027;-66
2021/03/02 03:53:57;;;;;;;11.75;5.75;;;;;;;-0.11;83.37;100176.91;5016476;28;20057;-66
2021/03/02 03:56:24;;;;;;;14.38;6.43;;;;;;;-0.15;82.86;100182.56;5014765;28;20032;-66
2021/03/02 03:58:50;;;;;;;12.32;6.10;;;;;;;-0.23;83.56;100186.56;5012798;28;20498;-66
2021/03/02 04:01:15;;;;;;;14.15;6.50;;;;;;;-0.27;83.21;100200.16;5021742;28;20022;-66
2021/03/02 04:03:42;;;;;;;12.90;6.63;;;;;;;-0.36;84.33;100190.13;5017676;28;20033;-66
2021/03/02 04:06:08;;;;;;;12.82;6.20;;;;;;;-0.32;83.88;100203.09;5018255;28;20083;-66
2021/03/02 04:08:34;;;;;;;12.65;6.32;;;;;;;-0.31;84.86;100206.63;5012791;28;20029;-66
2021/03/02 04:11:01;;;;;;;13.52;5.75;;;;;;;-0.32;84.54;100207.56;5017832;28;20018;-66
2021/03/02 04:13:27;;;;;;;11.60;6.00;;;;;;;-0.33;84.99;100208.53;5018172;28;20029;-66
2021/03/02 04:15:53;;;;;;;12.82;6.90;;;;;;;-0.35;84.92;100213.94;4999882;28;20034;-66
2021/03/02 04:18:19;;;;;;;12.75;6.20;;;;;;;-0.34;85.14;100204.16;5009790;28;20029;-66
2021/03/02 04:20:47;;;;;;;17.42;6.03;;;;;;;-0.36;85.20;100208.75;5016180;28;20221;-66
2021/03/02 04:23:13;;;;;;;15.02;6.18;;;;;;;-0.46;84.79;100203.16;5014915;28;20100;-66
2021/03/02 04:25:38;;;;;;;15.70;6.50;;;;;;;-0.47;85.24;100204.13;4996745;28;20122;-66
2021/03/02 04:28:05;;;;;;;13.85;6.32;;;;;;;-0.57;85.95;100209.16;5004905;28;20033;-67
2021/03/02 04:30:30;;;;;;;15.73;7.10;;;;;;;-0.60;86.02;100208.50;5014778;28;20030;-67
2021/03/02 04:32:56;;;;;;;10.73;6.03;;;;;;;-0.65;85.86;100186.69;5014701;28;20033;-67
2021/03/02 04:35:22;;;;;;;12.88;6.57;;;;;;;-0.64;85.99;100199.88;5013116;28;20535;-67
2021/03/02 04:37:47;;;;;;;17.30;6.53;;;;;;;-0.53;85.63;100213.31;5008370;28;20060;-67
2021/03/02 04:40:13;;;;;;;13.43;6.38;;;;;;;-0.61;85.83;100197.00;5013830;28;20053;-65
2021/03/02 04:42:39;;;;;;;11.65;5.35;;;;;;;-0.38;85.63;100214.16;5001499;28;20026;-65
2021/03/02 04:45:06;;;;;;;15.32;5.47;;;;;;;-0.39;85.25;100209.78;5022011;23;20038;-67
2021/03/02 04:47:32;;;;;;;12.77;5.75;;;;;;;-0.41;84.34;100209.03;4991835;28;20038;-67
2021/03/02 04:49:58;;;;;;;11.63;5.82;;;;;;;-0.46;84.67;100214.63;5007057;28;20038;-67
2021/03/02 04:52:23;;;;;;;12.52;6.20;;;;;;;-0.50;85.00;100215.81;4997724;28;20138;-67
2021/03/02 04:54:48;;;;;;;11.85;5.90;;;;;;;-0.51;85.31;100210.56;4998069;28;20042;-67
2021/03/02 04:57:13;;;;;;;14.60;6.93;;;;;;;-0.57;85.86;100218.94;4976317;28;20073;-67
2021/03/02 04:59:39;;;;;;;16.15;6.20;;;;;;;-0.60;84.99;100216.47;4986980;28;20049;-67
2021/03/02 05:02:04;;;;;;;16.73;6.82;;;;;;;-0.60;84.81;100219.13;4992603;28;20037;-66
2021/03/02 05:04:29;;;;;;;12.50;6.03;;;;;;;-0.67;84.67;100216.00;4991015;28;20456;-68
2021/03/02 05:06:55;;;;;;;13.32;6.40;;;;;;;-0.77;84.73;100215.72;4983755;28;20042;-68
2021/03/02 05:09:20;;;;;;;12.68;5.68;;;;;;;-0.96;84.77;100201.91;4986702;28;20053;-68
2021/03/02 05:11:45;;;;;;;13.38;5.80;;;;;;;-0.91;84.24;100216.59;4989871;28;20033;-68
2021/03/02 05:14:11;;;;;;;14.57;6.13;;;;;;;-0.99;85.05;100204.75;4991870;28;20677;-68
2021/03/02 05:16:37;;;;;;;14.18;6.47;;;;;;;-0.94;84.90;100215.94;4983423;28;20420;-69
2021/03/02 05:19:02;;;;;;;10.15;5.63;;;;;;;-0.97;85.13;100210.81;4974409;28;20030;-73
2021/03/02 05:21:28;;;;;;;11.57;5.97;;;;;;;-0.94;85.05;100206.16;4981528;28;20030;-76
2021/03/02 05:23:53;;;;;;;11.05;5.80;;;;;;;-0.75;84.97;100221.81;4993827;28;20036;-71
2021/03/02 05:26:21;;;;;;;13.25;5.80;;;;;;;-0.63;83.79;100221.97;4993239;28;20495;-71
2021/03/02 05:28:49;;;;;;;13.10;6.23;;;;;;;-0.69;84.05;100209.94;4985709;28;20040;-77
2021/03/02 05:31:15;;;;;;;13.27;6.35;;;;;;;-0.64;83.52;100207.84;4990905;28;20053;-74
2021/03/02 05:33:40;;;;;;;10.82;5.55;;;;;;;-0.75;83.68;100205.00;4993899;28;20027;-74
2021/03/02 05:36:06;;;;;;;15.63;5.97;;;;;;;-0.87;84.15;100211.94;4985673;28;20034;-74
2021/03/02 05:38:31;;;;;;;14.88;6.75;;;;;;;-0.94;83.88;100213.28;4988706;28;20162;-74
2021/03/02 05:40:56;;;;;;;8.68;5.40;;;;;;;-1.01;83.90;100198.69;4993567;28;20081;-74
2021/03/02 05:43:22;;;;;;;11.98;5.93;;;;;;;-0.90;83.79;100207.66;4991813;28;20084;-79
2021/03/02 05:45:48;;;;;;;11.93;5.80;;;;;;;-0.90;84.73;100201.50;4990865;28;20030;-73
2021/03/02 05:48:14;;;;;;;18.40;7.32;;;;;;;-0.95;85.27;100208.91;5005844;28;20033;-76
2021/03/02 05:50:40;;;;;;;16.95;7.18;;;;;;;-0.95;85.38;100208.91;4992566;28;20037;-76
2021/03/02 05:53:06;;;;;;;13.63;6.88;;;;;;;-0.99;84.94;100210.91;5009026;28;20124;-75
2021/03/02 05:55:33;;;;;;;16.50;6.30;;;;;;;-0.95;85.65;100203.59;4991197;28;20042;-79
2021/03/02 05:57:59;;;;;;;16.52;6.90;;;;;;;-0.84;85.81;100211.75;4995683;28;20034;-76
2021/03/02 06:00:25;;;;;;;15.23;6.85;;;;;;;-0.85;86.07;100220.69;4988350;28;20476;-77
2021/03/02 06:02:50;;;;;;;18.98;6.60;;;;;;;-0.83;85.67;100212.63;4983074;28;20632;-75
2021/03/02 06:05:16;;;;;;;17.15;7.63;;;;;;;-0.84;85.86;100214.41;4974761;28;20423;-76
2021/03/02 06:07:41;;;;;;;15.98;6.70;;;;;;;-0.77;85.83;100228.16;4985396;28;20105;-75
2021/03/02 06:10:07;;;;;;;13.68;6.05;;;;;;;-0.87;84.82;100214.59;4993347;28;20034;-76
2021/03/02 06:12:55;;;;;;;12.10;5.55;;;;;;;-0.84;82.82;100225.03;4995538;28;20168;-75
2021/03/02 06:15:21;;;;;;;13.75;5.47;;;;;;;-0.95;82.79;100208.91;4984024;28;20030;-75
2021/03/02 06:17:47;;;;;;;7.60;4.57;;;;;;;-0.93;83.13;100225.63;4991715;28;20041;-74
2021/03/02 06:20:20;;;;;;;10.20;4.47;;;;;;;-1.02;83.21;100227.03;4987537;28;20031;-76
2021/03/02 06:22:46;;;;;;;9.25;4.80;;;;;;;-1.16;83.87;100222.56;4985059;28;21350;-74
2021/03/02 06:25:26;;;;;;;10.93;5.20;;;;;;;-1.17;84.79;100228.84;4992328;28;20038;-73
2021/03/02 06:27:52;;;;;;;13.13;5.13;;;;;;;-1.11;84.82;100224.94;4989951;28;20070;-77
2021/03/02 06:30:18;;;;;;;13.50;5.22;;;;;;;-1.01;85.31;100228.75;4988404;28;20500;-73
2021/03/02 06:32:52;;;;;;;11.25;5.07;;;;;;;-0.72;85.51;100248.19;4984951;28;20073;-68
2021/03/02 06:35:31;;;;;;;13.90;5.93;;;;;;;0.83;81.97;100242.47;4984922;28;20041;-70
2021/03/02 06:37:56;;;;;;;8.85;4.60;;;;;;;3.31;72.51;100236.56;4974917;28;20030;-75
2021/03/02 06:40:45;;;;;;;11.13;4.88;;;;;;;5.39;65.43;100233.50;4989773;28;20174;-75
2021/03/02 06:43:36;;;;;;;6.72;3.75;;;;;;;6.95;60.03;100218.44;4977914;28;20025;-78
2021/03/02 06:46:08;;;;;;;11.38;5.10;;;;;;;7.92;56.14;100219.84;4972850;28;20584;-78
2021/03/02 06:48:53;;;;;;;9.95;5.28;;;;;;;8.56;53.60;100218.81;4983302;28;20054;-77
2021/03/02 06:51:26;;;;;;;10.85;5.47;;;;;;;9.88;51.19;100227.53;4998484;28;20077;-77
2021/03/02 06:54:15;;;;;;;13.10;5.78;;;;;;;9.56;50.66;100228.28;4974506;28;20508;-74
2021/03/02 06:56:42;;;;;;;13.98;6.20;;;;;;;10.89;48.75;100231.91;4983841;28;20042;-75
2021/03/02 06:59:18;;;;;;;11.70;5.50;;;;;;;11.17;47.23;100236.97;4982851;28;20436;-77
2021/03/02 07:01:48;;;;;;;12.25;5.60;;;;;;;12.21;45.07;100237.81;4984384;28;20107;-73
2021/03/02 07:04:14;;;;;;;;;;;;;;;12.42;43.29;100235.28;4992126;28;20153;-74
2021/03/02 07:06:42;;;;;;;10.77;5.82;;;;;;;12.52;42.97;100231.47;4977999;28;20379;-76
2021/03/02 07:09:08;;;;;;;14.52;6.38;;;;;;;13.36;41.24;100238.59;4990624;28;20447;-73
2021/03/02 07:11:36;;;;;;;14.00;6.38;;;;;;;13.95;41.41;100239.59;4983187;28;20101;-75
2021/03/02 07:14:06;;;;;;;13.77;6.82;;;;;;;13.64;40.85;100231.63;5013398;28;20017;-73
2021/03/02 07:16:39;;;;;;;12.32;7.15;;;;;;;13.40;41.88;100246.34;4991429;28;20034;-72
2021/03/02 07:19:05;;;;;;;12.82;7.82;;;;;;;14.43;40.17;100237.19;4989091;28;20101;-71
2021/03/02 07:21:39;;;;;;;15.57;7.85;;;;;;;14.28;39.71;100236.41;4990643;28;20018;-71
2021/03/02 07:24:09;;;;;;;11.55;7.25;;;;;;;14.81;39.50;100239.72;4991479;28;20139;-71
2021/03/02 07:26:37;;;;;;;10.85;6.50;;;;;;;14.64;40.08;100242.69;4976647;28;20397;-72
2021/03/02 07:29:04;;;;;;;12.68;8.15;;;;;;;14.03;40.96;100256.63;4986111;28;20473;-74
2021/03/02 07:31:30;;;;;;;12.85;6.82;;;;;;;14.41;40.72;100250.19;4986872;28;20085;-74
2021/03/02 07:33:56;;;;;;;11.98;7.20;;;;;;;15.71;38.59;100236.19;5004112;28;20480;-73
2021/03/02 07:36:21;;;;;;;13.00;7.18;;;;;;;16.07;38.79;100245.19;4987058;28;20045;-72
2021/03/02 07:39:16;;;;;;;12.40;7.18;;;;;;;16.41;38.73;100247.81;5008017;28;20054;-72
2021/03/02 07:41:41;;;;;;;11.95;7.90;;;;;;;17.04;37.23;100235.72;4967164;28;20030;-70
2021/03/02 07:44:07;;;;;;;10.63;6.72;;;;;;;16.95;37.01;100243.31;4977182;28;20037;-71
2021/03/02 07:46:39;;;;;;;16.27;7.70;;;;;;;17.34;36.91;100251.69;4982004;28;20499;-71
2021/03/02 07:49:23;;;;;;;13.18;7.13;;;;;;;16.69;38.10;100254.16;4976438;28;20037;-72
2021/03/02 07:52:00;;;;;;;12.98;7.53;;;;;;;17.23;36.89;100240.34;4994286;28;20105;-70
2021/03/02 07:54:29;;;;;;;9.95;7.10;;;;;;;17.82;35.74;100244.06;4993100;28;20042;-70
2021/03/02 07:57:13;;;;;;;12.68;6.40;;;;;;;18.56;34.32;100250.03;4980271;28;20069;-70
2021/03/02 07:59:38;;;;;;;10.00;7.47;;;;;;;18.92;34.90;100248.56;4978716;28;20049;-69
2021/03/02 08:02:17;;;;;;;13.77;6.95;;;;;;;19.65;33.67;100247.91;4976499;28;20477;-69
2021/03/02 08:04:47;;;;;;;14.60;7.10;;;;;;;20.09;32.86;100237.69;4990459;28;20081;-69
2021/03/02 08:07:27;;;;;;;10.65;7.35;;;;;;;18.69;34.89;100252.69;4986709;28;20500;-68
2021/03/02 08:09:58;;;;;;;10.15;7.65;;;;;;;18.77;35.41;100246.13;4990302;28;20038;-69
2021/03/02 08:12:36;;;;;;;12.05;7.97;;;;;;;19.12;34.75;100256.63;4986016;28;20068;-72
2021/03/02 08:15:13;;;;;;;12.33;7.80;;;;;;;20.59;33.24;100248.44;4988502;28;20400;-72
2021/03/02 08:17:38;;;;;;;12.73;7.40;;;;;;;21.71;31.69;100235.81;4989074;28;20114;-71
2021/03/02 08:20:09;;;;;;;10.32;7.95;;;;;;;20.84;32.30;100233.72;4994647;28;20118;-74
2021/03/02 08:22:34;;;;;;;12.82;8.32;;;;;;;21.02;32.85;100244.63;4977059;28;20027;-72
2021/03/02 08:25:03;;;;;;;11.60;8.00;;;;;;;20.19;33.80;100243.47;4987779;28;20547;-73
2021/03/02 08:27:40;;;;;;;11.57;6.93;;;;;;;21.29;32.87;100252.44;4985196;28;20639;-73
2021/03/02 08:30:10;;;;;;;16.33;8.98;;;;;;;19.60;34.89;100245.84;4980487;28;20030;-67
2021/03/02 08:32:37;;;;;;;12.50;8.38;;;;;;;19.75;34.95;100250.13;4997681;28;20047;-67
2021/03/02 08:35:08;;;;;;;13.65;8.43;;;;;;;20.76;33.20;100232.13;4975560;28;20146;-66
2021/03/02 08:37:47;;;;;;;12.70;9.05;;;;;;;21.49;32.44;100252.13;4992407;28;20018;-68
2021/03/02 08:40:17;;;;;;;10.80;8.25;;;;;;;22.71;30.83;100242.81;4982753;28;20034;-70
2021/03/02 08:43:08;;;;;;;15.70;8.98;;;;;;;22.83;31.49;100246.34;4988963;28;20113;-75
2021/03/02 08:45:50;;;;;;;11.75;8.05;;;;;;;23.45;29.87;100228.91;4984350;28;20050;-76
2021/03/02 08:48:23;;;;;;;16.58;9.45;;;;;;;22.65;31.04;100244.66;4988648;28;20431;-75
2021/03/02 08:51:00;;;;;;;13.77;9.20;;;;;;;20.92;33.81;100245.19;4985979;28;20011;-70
2021/03/02 08:53:36;;;;;;;13.23;9.68;;;;;;;21.42;32.72;100233.78;4985593;28;20532;-72
2021/03/02 08:56:07;;;;;;;13.77;10.23;;;;;;;22.38;32.52;100232.56;4987512;28;20038;-73
2021/03/02 08:58:36;;;;;;;17.30;11.18;;;;;;;22.01;31.98;100236.47;4983373;28;20027;-76
2021/03/02 09:01:08;;;;;;;15.20;9.00;;;;;;;23.68;29.78;100236.13;4980099;28;20632;-77
2021/03/02 09:03:34;;;;;;;13.15;9.85;;;;;;;23.07;30.76;100243.47;4975042;28;20037;-72
2021/03/02 09:06:11;;;;;;;13.70;9.50;;;;;;;21.64;32.14;100241.44;4984217;28;20027;-78
2021/03/02 09:08:54;;;;;;;15.90;10.13;;;;;;;21.26;32.63;100251.00;4999427;28;20026;-75
2021/03/02 09:11:26;;;;;;;14.75;9.88;;;;;;;20.16;34.60;100245.84;4983146;28;20153;-72
2021/03/02 09:13:52;;;;;;;16.20;10.55;;;;;;;22.06;32.18;100228.31;4975259;28;20029;-69
2021/03/02 09:16:25;;;;;;;17.15;12.10;;;;;;;22.89;31.47;100239.81;4992472;28;20117;-76
2021/03/02 09:19:05;;;;;;;18.80;13.90;;;;;;;22.57;31.56;100244.22;4985385;28;20113;-73
2021/03/02 09:21:31;;;;;;;14.93;10.77;;;;;;;22.59;31.51;100251.16;4993663;28;20018;-76
2021/03/02 09:23:57;;;;;;;14.57;9.98;;;;;;;21.94;32.58;100244.03;4994636;28;20034;-73
2021/03/02 09:26:23;;;;;;;15.55;10.48;;;;;;;20.29;34.51;100246.50;4982617;28;20069;-72
2021/03/02 09:29:03;;;;;;;17.75;10.85;;;;;;;19.64;35.66;100254.44;4977036;28;20027;-73
2021/03/02 09:31:31;;;;;;;18.42;9.43;;;;;;;21.15;34.23;100249.09;4979794;28;20419;-69
2021/03/02 09:33:58;;;;;;;17.00;9.77;;;;;;;21.55;33.23;100249.22;4989209;28;20120;-74
2021/03/02 09:36:29;;;;;;;16.50;9.55;;;;;;;21.22;34.09;100250.66;4986012;28;20026;-75
2021/03/02 09:38:56;;;;;;;18.58;10.95;;;;;;;20.42;35.45;100256.50;4977795;28;20115;-74
2021/03/02 09:41:39;;;;;;;16.63;9.77;;;;;;;21.71;33.48;100258.69;4981971;28;20093;-72
2021/03/02 09:44:26;;;;;;;15.48;9.90;;;;;;;21.10;33.73;100252.53;4974968;28;20110;-68
2021/03/02 09:46:56;;;;;;;17.00;10.05;;;;;;;21.31;33.50;100253.03;4984950;28;20030;-68
2021/03/02 09:49:43;;;;;;;13.02;9.00;;;;;;;22.35;32.18;100255.94;4981364;28;20051;-71
2021/03/02 09:52:20;;;;;;;15.57;9.57;;;;;;;22.08;32.10;100256.44;4988020;28;20116;-69
2021/03/02 09:55:07;;;;;;;13.10;9.45;;;;;;;20.72;34.21;100253.78;4985032;28;20034;-71
2021/03/02 09:57:32;;;;;;;14.23;9.00;;;;;;;21.31;33.10;100242.03;4999595;28;20021;-72
2021/03/02 09:59:57;;;;;;;13.80;9.43;;;;;;;21.92;32.45;100240.69;5003909;28;20164;-70
2021/03/02 10:02:23;;;;;;;15.27;8.75;;;;;;;21.13;33.50;100253.97;4992124;28;20388;-72
2021/03/02 10:04:48;;;;;;;15.05;9.23;;;;;;;20.90;34.46;100239.09;4979488;28;20038;-72
2021/03/02 10:07:13;;;;;;;13.82;8.85;;;;;;;21.57;33.06;100254.50;4991374;28;20022;-69
2021/03/02 10:09:49;;;;;;;14.32;9.25;;;;;;;21.43;33.18;100238.25;4989689;28;20030;-70
2021/03/02 10:12:15;;;;;;;13.98;9.60;;;;;;;21.08;33.68;100249.19;5005463;28;20054;-71
2021/03/02 10:14:43;;;;;;;15.38;10.00;;;;;;;21.06;33.98;100242.22;4987072;28;20105;-71
2021/03/02 10:17:09;;;;;;;15.85;9.40;;;;;;;23.39;31.24;100249.22;4989127;28;20057;-70
2021/03/02 10:19:35;;;;;;;13.15;8.85;;;;;;;23.93;30.18;100232.91;4984392;28;20403;-70
2021/03/02 10:22:03;;;;;;;14.18;9.02;;;;;;;22.88;31.62;100243.69;4992390;28;20140;-70
2021/03/02 10:24:30;;;;;;;14.38;8.70;;;;;;;24.63;29.43;100236.78;4989522;28;20050;-70
2021/03/02 10:26:57;;;;;;;13.32;8.95;;;;;;;23.87;30.85;100245.00;4992010;28;20435;-70
2021/03/02 10:29:23;;;;;;;13.05;9.50;;;;;;;24.32;29.95;100235.59;4990268;28;20041;-71
2021/03/02 10:31:49;;;;;;;14.65;9.05;;;;;;;24.24;30.19;100244.34;4992542;28;20023;-70
2021/03/02 10:34:15;;;;;;;12.80;8.82;;;;;;;25.02;29.96;100239.38;4980489;28;20038;-70
2021/03/02 10:36:42;;;;;;;10.32;8.52;;;;;;;25.61;28.71;100245.94;4985722;28;20030;-71
2021/03/02 10:39:15;;;;;;;15.13;9.25;;;;;;;23.72;30.76;100248.38;4979407;28;20035;-70
2021/03/02 10:41:43;;;;;;;12.05;8.60;;;;;;;25.05;28.97;100243.56;4986995;28;20038;-71
2021/03/02 10:44:09;;;;;;;13.40;9.38;;;;;;;24.21;30.02;100248.47;4986020;28;20033;-68
2021/03/02 10:46:36;;;;;;;15.02;9.57;;;;;;;22.86;32.61;100250.53;4990981;28;20026;-68
2021/03/02 10:49:02;;;;;;;12.82;9.13;;;;;;;24.09;31.03;100258.81;5003433;28;20108;-68
2021/03/02 10:51:29;;;;;;;11.05;9.05;;;;;;;24.49;29.91;100257.66;4995540;28;20033;-68
2021/03/02 10:53:54;;;;;;;12.40;8.30;;;;;;;24.41;30.03;100252.56;5005580;28;20516;-67
2021/03/02 10:56:20;;;;;;;10.10;7.80;;;;;;;25.32;29.96;100244.34;4987276;28;20040;-68
2021/03/02 10:58:46;;;;;;;11.18;8.50;;;;;;;24.35;30.23;100250.84;4991676;28;20034;-68
2021/03/02 11:01:12;;;;;;;11.30;8.73;;;;;;;25.86;28.60;100246.13;4991538;28;20026;-68
2021/03/02 11:03:39;;;;;;;10.05;7.65;;;;;;;26.64;28.54;100253.63;4995807;28;20026;-68
2021/03/02 11:06:04;;;;;;;12.73;8.82;;;;;;;26.05;27.89;100246.47;4994588;28;20026;-69
2021/03/02 11:08:29;;;;;;;14.13;8.75;;;;;;;26.27;28.45;100246.25;4978968;28;20030;-70
2021/03/02 11:10:55;;;;;;;13.20;9.77;;;;;;;25.65;28.76;100247.91;4985483;28;20432;-70
2021/03/02 11:13:20;;;;;;;12.60;8.60;;;;;;;26.09;28.85;100236.47;4993011;28;20042;-70
2021/03/02 11:15:46;;;;;;;10.88;8.43;;;;;;;26.06;28.46;100241.75;4985541;28;20023;-70
2021/03/02 11:18:12;;;;;;;16.10;9.25;;;;;;;23.38;30.36;100248.41;4988636;28;20030;-70
2021/03/02 11:20:43;;;;;;;13.43;8.63;;;;;;;24.18;29.82;100251.75;4991803;28;20042;-70
2021/03/02 11:23:09;;;;;;;12.15;8.25;;;;;;;25.31;29.51;100237.16;4990625;28;20026;-70
2021/03/02 11:25:34;;;;;;;11.80;8.10;;;;;;;25.79;29.31;100231.63;4992113;28;20073;-70
2021/03/02 11:28:00;;;;;;;11.77;8.68;;;;;;;25.34;30.04;100236.59;4975773;28;20041;-70
2021/03/02 11:30:25;;;;;;;11.23;9.20;;;;;;;27.10;28.23;100226.72;4988570;28;20415;-70